Time;durP1;ratioP1;P1;durP2;ratioP2;P2;SDS_P1;SDS_P2;PMS_P1;PMS_P2;Temp;Humidity;BMP_temperature;BMP_pressure;BME280_temperature;BME280_humidity;BME280_pressure;Samples;Min_cycle;Max_cycle;Signal;HPM_P1;HPM_P2
2023/01/30 00:01:12;;;;;;;;;49.33;43.00;;;;;;;;5100820;27;11655;-81
2023/01/30 00:03:40;;;;;;;;;49.00;41.50;;;;;;;;5102812;27;11536;-81
2023/01/30 00:06:08;;;;;;;;;44.75;40.75;;;;;;;;5092578;28;11549;-80
2023/01/30 00:08:35;;;;;;;;;46.25;40.75;;;;;;;;5084341;28;11504;-80
2023/01/30 00:11:05;;;;;;;;;35.50;35.25;;;;;;;;5080612;27;11573;-81
2023/01/30 00:13:35;;;;;;;;;44.25;39.75;;;;;;;;5096252;27;11516;-81
2023/01/30 00:16:02;;;;;;;;;43.75;36.25;;;;;;;;5098487;27;11516;-81
2023/01/30 00:18:30;;;;;;;;;44.25;40.50;;;;;;;;5098043;27;11534;-80
2023/01/30 00:20:58;;;;;;;;;38.00;30.75;;;;;;;;5097876;27;11525;-81
2023/01/30 00:23:26;;;;;;;;;40.00;36.50;;;;;;;;5101084;27;11533;-81
2023/01/30 00:25:54;;;;;;;;;48.50;41.00;;;;;;;;5097647;27;11540;-80
2023/01/30 00:28:22;;;;;;;;;39.75;38.00;;;;;;;;5108666;27;11579;-80
2023/01/30 00:30:51;;;;;;;;;37.25;34.50;;;;;;;;5104650;27;11493;-81
2023/01/30 00:33:19;;;;;;;;;48.00;41.75;;;;;;;;5093192;28;11622;-79
2023/01/30 00:35:47;;;;;;;;;46.00;40.00;;;;;;;;5096020;28;11533;-80
2023/01/30 00:38:15;;;;;;;;;42.00;38.25;;;;;;;;5095794;28;11546;-80
2023/01/30 00:40:44;;;;;;;;;37.50;36.75;;;;;;;;5112196;27;12308;-80
2023/01/30 00:48:46;;;;;;;;;46.25;39.25;;;;;;;;5100590;27;12288;-80
2023/01/30 00:51:13;;;;;;;;;39.50;37.25;;;;;;;;5096179;28;11534;-80
2023/01/30 00:53:40;;;;;;;;;36.50;31.75;;;;;;;;5074917;28;11641;-80
2023/01/30 00:56:08;;;;;;;;;32.25;31.25;;;;;;;;5102860;27;11549;-80
2023/01/30 00:58:36;;;;;;;;;38.25;36.75;;;;;;;;5100951;27;11546;-80
2023/01/30 01:01:05;;;;;;;;;38.00;32.50;;;;;;;;5092680;27;11466;-80
2023/01/30 01:03:33;;;;;;;;;47.00;40.00;;;;;;;;5101925;28;11526;-80
2023/01/30 01:06:00;;;;;;;;;36.25;32.50;;;;;;;;5079082;28;11514;-80
2023/01/30 01:08:28;;;;;;;;;42.75;34.75;;;;;;;;5115822;27;11602;-80
2023/01/30 01:10:55;;;;;;;;;34.00;29.50;;;;;;;;5080956;28;11554;-80
2023/01/30 01:13:23;;;;;;;;;38.25;36.50;;;;;;;;5081132;28;11510;-80
2023/01/30 01:15:51;;;;;;;;;34.25;32.50;;;;;;;;5076335;28;11652;-80
2023/01/30 01:18:20;;;;;;;;;43.25;37.00;;;;;;;;5099274;28;11501;-80
2023/01/30 01:20:47;;;;;;;;;35.75;34.50;;;;;;;;5101663;28;11465;-80
2023/01/30 01:23:15;;;;;;;;;43.00;37.50;;;;;;;;5095406;28;12318;-80
2023/01/30 01:25:42;;;;;;;;;42.00;37.00;;;;;;;;5094001;28;11565;-80
2023/01/30 01:28:10;;;;;;;;;48.25;37.50;;;;;;;;5079124;28;11571;-81
2023/01/30 01:30:39;;;;;;;;;38.00;33.25;;;;;;;;5102239;27;11558;-81
2023/01/30 01:33:06;;;;;;;;;36.50;32.50;;;;;;;;5064247;28;11601;-81
2023/01/30 01:35:35;;;;;;;;;41.50;35.25;;;;;;;;5080472;28;11532;-80
2023/01/30 01:38:03;;;;;;;;;48.75;42.75;;;;;;;;5094200;28;11538;-80
2023/01/30 01:43:19;;;;;;;;;45.25;37.75;;;;;;;;5092749;28;11501;-80
2023/01/30 01:45:49;;;;;;;;;46.00;40.25;;;;;;;;5090986;28;11588;-80
2023/01/30 01:48:21;;;;;;;;;46.75;38.50;;;;;;;;5095817;27;11467;-80
2023/01/30 01:50:54;;;;;;;;;39.50;36.25;;;;;;;;5092795;28;11561;-81
2023/01/30 01:53:24;;;;;;;;;37.75;36.00;;;;;;;;5095402;28;11447;-80
2023/01/30 01:55:54;;;;;;;;;41.75;39.75;;;;;;;;5082489;28;11505;-81
2023/01/30 01:58:27;;;;;;;;;42.50;37.75;;;;;;;;5109351;27;11616;-80
2023/01/30 02:00:56;;;;;;;;;34.00;30.75;;;;;;;;5100602;27;11481;-81
2023/01/30 02:03:26;;;;;;;;;32.50;31.25;;;;;;;;5104317;27;11523;-82
2023/01/30 02:05:59;;;;;;;;;39.50;36.75;;;;;;;;5102067;27;11615;-80
2023/01/30 02:08:27;;;;;;;;;39.25;38.75;;;;;;;;5098692;27;11498;-80
2023/01/30 02:10:59;;;;;;;;;38.50;35.75;;;;;;;;5102965;27;11472;-80
2023/01/30 02:13:28;;;;;;;;;39.50;37.00;;;;;;;;5096139;27;11501;-81
2023/01/30 02:15:57;;;;;;;;;35.50;33.50;;;;;;;;5112669;27;12371;-79
2023/01/30 02:18:26;;;;;;;;;38.25;34.00;;;;;;;;5103519;27;11499;-80
2023/01/30 02:21:18;;;;;;;;;37.00;34.75;;;;;;;;5100921;27;11461;-80
2023/01/30 02:24:07;;;;;;;;;36.00;31.75;;;;;;;;5079001;28;12690;-80
2023/01/30 02:27:06;;;;;;;;;39.50;35.50;;;;;;;;5108847;27;11502;-79
2023/01/30 02:29:56;;;;;;;;;37.75;37.25;;;;;;;;5083989;28;11591;-81
2023/01/30 02:32:30;;;;;;;;;36.25;32.75;;;;;;;;5094499;27;11514;-80
2023/01/30 02:35:04;;;;;;;;;35.75;33.00;;;;;;;;5080873;28;11516;-81
2023/01/30 02:37:42;;;;;;;;;45.75;33.25;;;;;;;;5100504;28;11512;-80
2023/01/30 02:40:25;;;;;;;;;44.00;33.25;;;;;;;;5096890;27;11474;-80
2023/01/30 02:42:59;;;;;;;;;41.00;36.25;;;;;;;;5098112;28;11515;-80
2023/01/30 02:45:33;;;;;;;;;42.75;35.25;;;;;;;;5091145;28;11636;-80
2023/01/30 02:48:04;;;;;;;;;27.75;24.75;;;;;;;;5081841;28;11501;-80
2023/01/30 02:50:35;;;;;;;;;38.75;38.00;;;;;;;;5102894;27;11562;-79
2023/01/30 02:53:03;;;;;;;;;36.50;36.25;;;;;;;;5075018;28;11497;-79
2023/01/30 02:55:31;;;;;;;;;44.50;37.75;;;;;;;;5101403;27;11502;-79
2023/01/30 02:57:59;;;;;;;;;43.25;37.00;;;;;;;;5086243;28;11551;-80
2023/01/30 03:00:48;;;;;;;;;36.75;31.25;;;;;;;;5096713;28;11469;-80
2023/01/30 03:03:28;;;;;;;;;33.00;32.50;;;;;;;;5103413;27;11533;-79
2023/01/30 03:06:17;;;;;;;;;39.50;32.50;;;;;;;;5103644;27;11516;-80
2023/01/30 03:08:55;;;;;;;;;47.75;39.00;;;;;;;;5092008;27;11681;-80
2023/01/30 03:11:26;;;;;;;;;40.00;33.00;;;;;;;;5095194;27;11526;-80
2023/01/30 03:13:58;;;;;;;;;31.75;30.50;;;;;;;;5081892;28;11577;-80
2023/01/30 03:16:30;;;;;;;;;33.50;31.50;;;;;;;;5096583;27;11544;-81
2023/01/30 03:19:00;;;;;;;;;33.75;30.00;;;;;;;;5078838;27;12383;-80
2023/01/30 03:21:28;;;;;;;;;30.75;29.75;;;;;;;;5094345;27;11543;-80
2023/01/30 03:23:55;;;;;;;;;32.50;29.75;;;;;;;;5080047;28;11546;-81
2023/01/30 03:26:26;;;;;;;;;39.75;33.75;;;;;;;;5098830;28;11544;-81
2023/01/30 03:28:54;;;;;;;;;32.50;28.75;;;;;;;;5096116;27;11580;-80
2023/01/30 03:31:21;;;;;;;;;37.75;31.75;;;;;;;;5082956;27;11459;-80
2023/01/30 03:33:49;;;;;;;;;28.75;28.00;;;;;;;;5111729;27;11516;-80
2023/01/30 03:36:18;;;;;;;;;37.25;33.50;;;;;;;;5084626;28;11503;-80
2023/01/30 03:38:46;;;;;;;;;30.25;28.50;;;;;;;;5095481;28;11500;-80
2023/01/30 03:41:13;;;;;;;;;25.75;21.25;;;;;;;;5062701;28;11544;-80
2023/01/30 03:43:41;;;;;;;;;39.25;35.75;;;;;;;;5099925;28;11506;-81
2023/01/30 03:46:09;;;;;;;;;34.00;30.75;;;;;;;;5075867;28;11542;-79
2023/01/30 03:48:37;;;;;;;;;29.00;28.25;;;;;;;;5097810;28;11509;-80
2023/01/30 03:51:05;;;;;;;;;37.00;37.00;;;;;;;;5081500;28;11559;-81
2023/01/30 03:53:34;;;;;;;;;31.50;28.25;;;;;;;;5101920;27;11494;-81
2023/01/30 03:56:01;;;;;;;;;32.25;30.25;;;;;;;;5083163;28;12335;-81
2023/01/30 03:58:29;;;;;;;;;39.25;31.75;;;;;;;;5092760;27;12301;-80
2023/01/30 04:00:57;;;;;;;;;33.25;29.75;;;;;;;;5097102;27;11498;-80
2023/01/30 04:03:24;;;;;;;;;34.75;29.75;;;;;;;;5102376;27;11512;-80
2023/01/30 04:05:52;;;;;;;;;30.50;27.25;;;;;;;;5106029;27;11475;-80
2023/01/30 04:08:20;;;;;;;;;30.00;29.50;;;;;;;;5100486;27;11550;-80
2023/01/30 04:10:49;;;;;;;;;39.25;34.50;;;;;;;;5100960;27;11541;-80
2023/01/30 04:13:17;;;;;;;;;24.50;21.00;;;;;;;;5095426;27;11562;-79
2023/01/30 04:15:44;;;;;;;;;30.25;24.75;;;;;;;;5080082;28;11518;-80
2023/01/30 04:18:12;;;;;;;;;40.75;29.50;;;;;;;;5093059;27;11556;-80
2023/01/30 04:20:39;;;;;;;;;27.00;25.50;;;;;;;;5075451;28;11526;-80
2023/01/30 04:23:07;;;;;;;;;23.75;23.75;;;;;;;;5097379;27;11551;-80
2023/01/30 04:25:34;;;;;;;;;32.25;30.00;;;;;;;;5095749;27;11538;-80
2023/01/30 04:28:04;;;;;;;;;26.25;24.50;;;;;;;;5103776;27;11494;-80
2023/01/30 04:30:31;;;;;;;;;24.50;24.50;;;;;;;;5079835;27;11491;-80
2023/01/30 04:32:58;;;;;;;;;33.25;28.25;;;;;;;;5097669;28;11529;-81
2023/01/30 04:35:26;;;;;;;;;35.50;32.50;;;;;;;;5097541;27;11609;-80
2023/01/30 04:37:54;;;;;;;;;32.50;29.25;;;;;;;;5096578;28;12432;-80
2023/01/30 04:40:21;;;;;;;;;32.00;29.00;;;;;;;;5074436;28;11628;-80
2023/01/30 04:42:49;;;;;;;;;25.00;24.00;;;;;;;;5074710;28;11528;-80
2023/01/30 04:45:18;;;;;;;;;32.75;29.00;;;;;;;;5095670;28;11554;-79
2023/01/30 04:47:45;;;;;;;;;26.75;24.50;;;;;;;;5077930;28;11547;-79
2023/01/30 04:50:13;;;;;;;;;21.00;19.50;;;;;;;;5080277;28;11549;-80
2023/01/30 04:52:40;;;;;;;;;23.00;18.50;;;;;;;;5104811;27;11525;-80
2023/01/30 04:55:09;;;;;;;;;29.00;29.00;;;;;;;;5080034;28;11515;-80
2023/01/30 04:57:38;;;;;;;;;28.75;25.50;;;;;;;;5076985;27;11523;-81
2023/01/30 05:00:08;;;;;;;;;24.50;20.75;;;;;;;;5077362;27;11552;-81
2023/01/30 05:02:37;;;;;;;;;31.25;25.50;;;;;;;;5071729;27;11523;-81
2023/01/30 05:05:06;;;;;;;;;31.00;28.25;;;;;;;;5082598;28;11560;-80
2023/01/30 05:07:36;;;;;;;;;23.25;23.25;;;;;;;;5096385;27;11554;-80
2023/01/30 05:10:04;;;;;;;;;30.25;26.00;;;;;;;;5101240;27;11472;-81
2023/01/30 05:12:32;;;;;;;;;30.25;30.00;;;;;;;;5094544;28;11525;-81
2023/01/30 05:15:00;;;;;;;;;34.50;29.50;;;;;;;;5088972;28;11003;-81
2023/01/30 05:17:27;;;;;;;;;25.50;23.25;;;;;;;;5098250;28;11494;-80
2023/01/30 05:19:56;;;;;;;;;18.75;14.25;;;;;;;;5079822;27;11573;-81
2023/01/30 05:22:24;;;;;;;;;34.00;27.25;;;;;;;;5104055;27;11514;-81
2023/01/30 05:24:53;;;;;;;;;35.50;27.50;;;;;;;;5099469;28;11609;-81
2023/01/30 05:27:20;;;;;;;;;33.50;31.00;;;;;;;;5096728;28;11491;-81
2023/01/30 05:29:48;;;;;;;;;30.00;25.75;;;;;;;;5099354;28;11650;-80
2023/01/30 05:32:17;;;;;;;;;31.50;28.25;;;;;;;;5101222;27;11484;-80
2023/01/30 05:34:45;;;;;;;;;27.50;21.00;;;;;;;;5099875;27;11512;-80
2023/01/30 05:37:14;;;;;;;;;30.00;24.75;;;;;;;;5097478;28;11627;-80
2023/01/30 05:39:42;;;;;;;;;23.00;23.00;;;;;;;;5108051;27;11512;-80
2023/01/30 05:42:09;;;;;;;;;31.50;26.25;;;;;;;;5102184;28;11526;-80
2023/01/30 05:44:37;;;;;;;;;20.75;20.00;;;;;;;;5103859;27;12336;-80
2023/01/30 05:47:05;;;;;;;;;31.50;27.00;;;;;;;;5084498;27;11557;-80
2023/01/30 05:49:35;;;;;;;;;31.50;26.00;;;;;;;;5098859;27;11628;-83
2023/01/30 05:52:02;;;;;;;;;32.50;26.75;;;;;;;;5099865;27;11452;-81
2023/01/30 05:54:31;;;;;;;;;35.25;30.00;;;;;;;;5112324;27;11530;-80
2023/01/30 05:56:59;;;;;;;;;25.00;22.00;;;;;;;;5081089;27;11604;-81
2023/01/30 05:59:27;;;;;;;;;27.75;24.75;;;;;;;;5116415;27;11501;-80
2023/01/30 06:01:54;;;;;;;;;27.50;25.00;;;;;;;;5085087;28;11452;-80
2023/01/30 06:04:22;;;;;;;;;28.25;24.00;;;;;;;;5085877;27;11632;-80
2023/01/30 06:06:50;;;;;;;;;30.25;24.50;;;;;;;;5083703;28;11519;-80
2023/01/30 06:09:18;;;;;;;;;29.00;25.50;;;;;;;;5098430;27;11524;-79
2023/01/30 06:11:47;;;;;;;;;31.50;30.00;;;;;;;;5103573;27;11624;-79
2023/01/30 06:14:14;;;;;;;;;37.50;31.75;;;;;;;;5105929;27;11578;-78
2023/01/30 06:16:42;;;;;;;;;28.50;21.75;;;;;;;;5066906;28;11537;-78
2023/01/30 06:19:11;;;;;;;;;25.00;21.00;;;;;;;;5101203;27;11649;-78
2023/01/30 06:21:39;;;;;;;;;29.75;29.75;;;;;;;;5100312;27;12723;-81
2023/01/30 06:24:07;;;;;;;;;28.50;27.75;;;;;;;;5107195;27;11495;-80
2023/01/30 06:26:34;;;;;;;;;26.50;25.75;;;;;;;;5105500;27;11537;-80
2023/01/30 06:29:03;;;;;;;;;29.75;28.75;;;;;;;;5080474;28;11542;-80
2023/01/30 06:31:31;;;;;;;;;27.00;25.25;;;;;;;;5078870;27;11501;-79
2023/01/30 06:34:02;;;;;;;;;29.00;28.25;;;;;;;;5081090;28;11574;-80
2023/01/30 06:36:29;;;;;;;;;38.50;30.25;;;;;;;;5082049;28;11554;-79
2023/01/30 06:39:00;;;;;;;;;27.25;25.50;;;;;;;;5082111;28;11542;-79
2023/01/30 06:41:27;;;;;;;;;27.00;26.50;;;;;;;;5116310;27;11567;-84
2023/01/30 06:43:55;;;;;;;;;30.00;28.75;;;;;;;;5071692;28;11522;-82
2023/01/30 06:46:25;;;;;;;;;23.00;19.75;;;;;;;;5087192;27;11529;-85
2023/01/30 06:48:52;;;;;;;;;31.75;29.50;;;;;;;;5088172;28;11028;-78
2023/01/30 06:51:21;;;;;;;;;33.00;31.00;;;;;;;;5062095;28;11526;-79
2023/01/30 06:53:49;;;;;;;;;23.25;21.25;;;;;;;;5103165;27;11665;-80
2023/01/30 06:56:16;;;;;;;;;29.75;29.75;;;;;;;;5083640;28;11480;-81
2023/01/30 06:58:44;;;;;;;;;28.50;26.00;;;;;;;;5081075;28;11520;-80
2023/01/30 07:01:13;;;;;;;;;28.75;25.00;;;;;;;;5103698;27;11572;-83
2023/01/30 07:03:42;;;;;;;;;33.75;30.25;;;;;;;;5100693;27;11597;-74
2023/01/30 07:06:10;;;;;;;;;35.00;30.00;;;;;;;;5100764;27;11579;-72
2023/01/30 07:08:37;;;;;;;;;28.25;28.25;;;;;;;;5099657;28;11544;-73
2023/01/30 07:11:05;;;;;;;;;31.75;25.25;;;;;;;;5080355;28;11532;-72
2023/01/30 07:13:33;;;;;;;;;21.50;19.75;;;;;;;;5098677;27;11583;-72
2023/01/30 07:16:00;;;;;;;;;33.25;26.00;;;;;;;;5094313;28;11506;-71
2023/01/30 07:18:28;;;;;;;;;28.25;28.25;;;;;;;;5101186;27;11535;-72
2023/01/30 07:20:58;;;;;;;;;26.75;26.75;;;;;;;;5088478;28;11531;-75
2023/01/30 07:23:26;;;;;;;;;21.00;21.00;;;;;;;;5103004;28;11515;-73
2023/01/30 07:25:54;;;;;;;;;27.00;22.25;;;;;;;;5082544;27;11503;-73
2023/01/30 07:28:21;;;;;;;;;33.00;29.75;;;;;;;;5096275;27;11539;-73
2023/01/30 07:30:51;;;;;;;;;31.00;24.25;;;;;;;;5098494;27;11458;-73
2023/01/30 07:33:19;;;;;;;;;32.75;25.00;;;;;;;;5103415;27;11628;-73
2023/01/30 07:35:47;;;;;;;;;31.50;30.25;;;;;;;;5098651;27;11514;-73
2023/01/30 07:38:16;;;;;;;;;27.25;25.50;;;;;;;;5099777;27;11482;-72
2023/01/30 07:40:43;;;;;;;;;25.50;22.25;;;;;;;;5100849;28;11541;-71
2023/01/30 07:43:13;;;;;;;;;33.75;29.50;;;;;;;;5065276;28;11548;-73
2023/01/30 07:45:42;;;;;;;;;28.75;25.25;;;;;;;;5079619;27;11536;-72
2023/01/30 07:48:10;;;;;;;;;29.75;29.75;;;;;;;;5097512;27;11522;-71
2023/01/30 07:50:37;;;;;;;;;26.50;22.00;;;;;;;;5099526;27;11553;-71
2023/01/30 07:53:05;;;;;;;;;31.50;30.50;;;;;;;;5099949;27;11519;-72
2023/01/30 07:55:34;;;;;;;;;21.75;21.75;;;;;;;;5101157;27;12681;-71
2023/01/30 07:58:02;;;;;;;;;34.75;30.75;;;;;;;;5095945;28;11545;-71
2023/01/30 08:00:30;;;;;;;;;32.75;26.25;;;;;;;;5096828;28;11455;-71
2023/01/30 08:02:57;;;;;;;;;25.25;25.25;;;;;;;;5101239;28;12533;-71
2023/01/30 08:05:25;;;;;;;;;34.00;30.25;;;;;;;;5099216;27;11515;-71
2023/01/30 08:07:52;;;;;;;;;30.75;26.50;;;;;;;;5097900;28;11467;-72
2023/01/30 08:10:20;;;;;;;;;26.75;25.25;;;;;;;;5104701;27;11550;-72
2023/01/30 08:12:50;;;;;;;;;24.50;22.50;;;;;;;;5102380;27;11523;-71
2023/01/30 08:15:18;;;;;;;;;28.25;28.25;;;;;;;;5101036;27;11541;-72
2023/01/30 08:17:49;;;;;;;;;28.00;25.25;;;;;;;;5078124;27;11535;-72
2023/01/30 08:20:16;;;;;;;;;26.00;26.00;;;;;;;;5099703;27;11536;-71
2023/01/30 08:22:44;;;;;;;;;27.25;27.25;;;;;;;;5092134;27;11509;-72
2023/01/30 08:25:11;;;;;;;;;33.25;31.00;;;;;;;;5106930;27;11532;-72
2023/01/30 08:27:38;;;;;;;;;27.00;21.25;;;;;;;;5078642;28;11519;-71
2023/01/30 08:30:09;;;;;;;;;26.25;22.75;;;;;;;;5095293;28;11540;-71
2023/01/30 08:32:37;;;;;;;;;29.25;27.25;;;;;;;;5099150;27;11592;-71
2023/01/30 08:35:04;;;;;;;;;37.00;27.75;;;;;;;;5104310;27;11523;-71
2023/01/30 08:37:32;;;;;;;;;29.75;26.50;;;;;;;;5097972;28;11510;-72
2023/01/30 08:39:59;;;;;;;;;29.00;24.50;;;;;;;;5090904;28;11511;-72
2023/01/30 08:42:27;;;;;;;;;23.00;23.00;;;;;;;;5097701;27;11528;-71
2023/01/30 08:44:54;;;;;;;;;27.00;26.75;;;;;;;;5097560;27;11576;-71
2023/01/30 08:47:23;;;;;;;;;29.00;28.50;;;;;;;;5080561;27;11535;-71
2023/01/30 08:49:51;;;;;;;;;31.25;26.25;;;;;;;;5099690;27;11521;-71
2023/01/30 08:52:19;;;;;;;;;26.25;23.75;;;;;;;;5097722;27;11593;-70
2023/01/30 08:54:46;;;;;;;;;28.00;25.75;;;;;;;;5095919;27;11548;-71
2023/01/30 08:57:14;;;;;;;;;28.75;28.75;;;;;;;;5105747;27;11512;-71
2023/01/30 08:59:42;;;;;;;;;28.25;26.00;;;;;;;;5097043;27;11529;-71
2023/01/30 09:02:10;;;;;;;;;32.25;28.50;;;;;;;;5094691;27;11448;-70
2023/01/30 09:04:39;;;;;;;;;25.25;22.25;;;;;;;;5100646;27;11549;-73
2023/01/30 09:07:07;;;;;;;;;28.50;26.25;;;;;;;;5096555;28;11507;-72
2023/01/30 09:09:34;;;;;;;;;27.75;22.00;;;;;;;;5065423;28;11499;-72
2023/01/30 09:12:02;;;;;;;;;24.50;24.50;;;;;;;;5101021;28;11534;-72
2023/01/30 09:14:29;;;;;;;;;19.00;19.00;;;;;;;;5103611;27;11441;-73
2023/01/30 09:16:57;;;;;;;;;26.25;21.75;;;;;;;;5100212;28;11468;-72
2023/01/30 09:19:26;;;;;;;;;26.50;22.50;;;;;;;;5099712;28;11482;-72
2023/01/30 09:21:55;;;;;;;;;21.25;20.75;;;;;;;;5077653;28;12312;-72
2023/01/30 09:24:25;;;;;;;;;25.50;23.00;;;;;;;;5101096;28;13224;-70
2023/01/30 09:26:52;;;;;;;;;25.75;25.75;;;;;;;;5095361;27;11510;-70
2023/01/30 09:29:20;;;;;;;;;23.50;23.50;;;;;;;;5098282;27;11442;-71
2023/01/30 09:31:47;;;;;;;;;26.00;24.25;;;;;;;;5101416;27;11533;-71
2023/01/30 09:34:14;;;;;;;;;27.00;24.50;;;;;;;;5099927;28;11527;-71
2023/01/30 09:36:42;;;;;;;;;19.00;15.75;;;;;;;;5100086;28;11490;-72
2023/01/30 09:39:11;;;;;;;;;23.25;20.50;;;;;;;;5076101;28;11532;-71
2023/01/30 09:42:00;;;;;;;;;23.00;22.50;;;;;;;;5098326;27;11545;-71
2023/01/30 09:45:00;;;;;;;;;22.50;22.50;;;;;;;;5093565;27;11487;-70
2023/01/30 09:47:37;;;;;;;;;23.00;21.00;;;;;;;;5096581;28;12358;-72
2023/01/30 09:50:16;;;;;;;;;17.50;17.25;;;;;;;;5095243;28;11461;-70
2023/01/30 09:52:55;;;;;;;;;26.50;25.00;;;;;;;;5098093;28;11550;-70
2023/01/30 09:55:28;;;;;;;;;32.00;25.00;;;;;;;;5071863;28;11548;-71
2023/01/30 09:57:58;;;;;;;;;22.50;19.75;;;;;;;;5096485;28;11510;-70
2023/01/30 10:00:31;;;;;;;;;27.50;26.75;;;;;;;;5102310;27;11507;-71
2023/01/30 10:03:04;;;;;;;;;26.50;21.50;;;;;;;;5093525;28;11522;-70
2023/01/30 10:05:37;;;;;;;;;29.75;25.50;;;;;;;;5096066;27;11481;-71
2023/01/30 10:08:37;;;;;;;;;22.50;22.50;;;;;;;;5094335;27;11510;-70
2023/01/30 10:11:17;;;;;;;;;26.00;24.25;;;;;;;;5088353;28;11488;-70
2023/01/30 10:13:59;;;;;;;;;23.00;22.25;;;;;;;;5090621;27;11544;-70
2023/01/30 10:16:30;;;;;;;;;28.50;23.75;;;;;;;;5094094;27;12201;-70
2023/01/30 10:19:25;;;;;;;;;27.00;24.50;;;;;;;;5071720;27;12413;-70
2023/01/30 10:22:00;;;;;;;;;23.75;21.50;;;;;;;;5095904;27;11488;-70
2023/01/30 10:24:38;;;;;;;;;28.75;27.00;;;;;;;;5096809;27;12143;-70
2023/01/30 10:27:11;;;;;;;;;25.00;23.50;;;;;;;;5100379;27;11460;-71
2023/01/30 10:29:41;;;;;;;;;27.00;24.50;;;;;;;;5099624;27;11545;-70
2023/01/30 10:32:14;;;;;;;;;20.75;20.25;;;;;;;;5101198;27;11399;-70
2023/01/30 10:34:45;;;;;;;;;29.50;24.75;;;;;;;;5099040;27;11483;-70
2023/01/30 10:37:18;;;;;;;;;24.75;23.25;;;;;;;;5078554;28;11546;-70
2023/01/30 10:39:51;;;;;;;;;29.00;25.75;;;;;;;;5103804;27;11548;-71
2023/01/30 10:42:24;;;;;;;;;22.50;21.00;;;;;;;;5095567;27;11870;-70
2023/01/30 10:44:52;;;;;;;;;27.50;25.50;;;;;;;;5102741;27;11452;-70
2023/01/30 10:47:39;;;;;;;;;21.50;18.50;;;;;;;;5080182;28;11428;-71
2023/01/30 10:50:14;;;;;;;;;18.50;18.25;;;;;;;;5099102;27;11408;-71
2023/01/30 10:52:48;;;;;;;;;25.50;25.50;;;;;;;;5103827;27;11451;-71
2023/01/30 10:55:20;;;;;;;;;23.00;21.25;;;;;;;;5097816;27;12304;-71
2023/01/30 10:57:55;;;;;;;;;18.00;18.00;;;;;;;;5097360;28;11463;-71
2023/01/30 11:00:28;;;;;;;;;21.75;18.00;;;;;;;;5099934;27;11455;-71
2023/01/30 11:03:16;;;;;;;;;19.50;16.25;;;;;;;;5104146;27;11552;-72
2023/01/30 11:05:47;;;;;;;;;24.25;24.25;;;;;;;;5085678;28;11533;-70
2023/01/30 11:08:21;;;;;;;;;25.25;23.25;;;;;;;;5103532;27;11452;-71
2023/01/30 11:10:49;;;;;;;;;22.00;18.50;;;;;;;;5103392;27;11571;-71
2023/01/30 11:13:20;;;;;;;;;26.00;20.25;;;;;;;;5106848;27;11435;-71
2023/01/30 11:15:49;;;;;;;;;21.50;19.25;;;;;;;;5104532;27;11446;-71
2023/01/30 11:18:19;;;;;;;;;18.75;16.00;;;;;;;;5100742;27;11481;-71
2023/01/30 11:20:51;;;;;;;;;18.00;18.00;;;;;;;;5103539;27;11457;-71
2023/01/30 11:23:27;;;;;;;;;18.00;15.50;;;;;;;;5085052;28;11431;-72
2023/01/30 11:25:58;;;;;;;;;20.00;15.75;;;;;;;;5100429;28;11568;-71
2023/01/30 11:28:27;;;;;;;;;15.50;14.00;;;;;;;;5102201;27;12184;-72
2023/01/30 11:30:57;;;;;;;;;19.00;17.00;;;;;;;;5102461;27;11240;-71
2023/01/30 11:33:31;;;;;;;;;16.25;12.00;;;;;;;;5086130;28;11300;-72
2023/01/30 11:36:01;;;;;;;;;20.75;19.25;;;;;;;;5102256;28;11095;-71
2023/01/30 11:38:31;;;;;;;;;18.75;18.75;;;;;;;;5068453;28;11191;-70
2023/01/30 11:41:10;;;;;;;;;18.25;14.00;;;;;;;;5103533;27;11253;-71
2023/01/30 11:43:40;;;;;;;;;18.50;16.00;;;;;;;;5100771;27;11128;-71
2023/01/30 11:46:09;;;;;;;;;17.50;14.50;;;;;;;;5099312;28;11133;-71
2023/01/30 11:48:48;;;;;;;;;17.25;16.75;;;;;;;;5094503;27;11301;-70
2023/01/30 11:51:15;;;;;;;;;15.25;15.25;;;;;;;;5099468;28;10993;-72
2023/01/30 11:53:46;;;;;;;;;18.50;16.75;;;;;;;;5102686;27;11010;-71
2023/01/30 11:56:17;;;;;;;;;19.50;19.25;;;;;;;;5095197;27;12029;-72
2023/01/30 11:58:56;;;;;;;;;19.00;15.75;;;;;;;;5098897;28;10932;-71
2023/01/30 12:01:27;;;;;;;;;14.00;14.00;;;;;;;;5096591;28;10895;-72
2023/01/30 12:03:55;;;;;;;;;14.25;14.25;;;;;;;;5099955;27;10847;-72
2023/01/30 12:06:24;;;;;;;;;10.50;10.50;;;;;;;;5102017;27;10657;-71
2023/01/30 12:08:54;;;;;;;;;13.25;13.25;;;;;;;;5079105;28;10641;-72
2023/01/30 12:11:43;;;;;;;;;12.50;12.50;;;;;;;;5095590;27;10612;-72
2023/01/30 12:14:23;;;;;;;;;16.75;12.75;;;;;;;;5099794;27;10443;-71
2023/01/30 12:17:09;;;;;;;;;14.50;13.75;;;;;;;;5101334;27;10546;-71
2023/01/30 12:19:43;;;;;;;;;13.75;11.75;;;;;;;;5102677;27;10479;-72
2023/01/30 12:22:21;;;;;;;;;12.25;12.25;;;;;;;;5103783;27;10562;-71
2023/01/30 12:24:58;;;;;;;;;9.00;9.00;;;;;;;;5097956;27;10654;-72
2023/01/30 12:27:44;;;;;;;;;14.50;12.00;;;;;;;;5096022;27;10552;-71
2023/01/30 12:30:23;;;;;;;;;13.00;13.00;;;;;;;;5081301;28;10542;-72
2023/01/30 12:32:50;;;;;;;;;12.25;12.25;;;;;;;;5097625;27;10410;-71
2023/01/30 12:35:19;;;;;;;;;12.75;12.75;;;;;;;;5100885;27;10508;-72
2023/01/30 12:37:58;;;;;;;;;11.00;9.50;;;;;;;;5086819;27;10422;-71
2023/01/30 12:40:35;;;;;;;;;13.75;11.25;;;;;;;;5083990;27;10301;-72
2023/01/30 12:43:22;;;;;;;;;10.25;10.25;;;;;;;;5096103;27;10247;-71
2023/01/30 12:46:00;;;;;;;;;12.00;12.00;;;;;;;;5102859;27;10239;-71
2023/01/30 12:48:48;;;;;;;;;14.25;12.00;;;;;;;;5096985;27;10184;-72
2023/01/30 12:51:27;;;;;;;;;12.50;12.50;;;;;;;;5097378;27;10152;-70
2023/01/30 12:54:01;;;;;;;;;13.00;11.25;;;;;;;;5097315;27;10083;-71
2023/01/30 12:56:42;;;;;;;;;10.00;10.00;;;;;;;;5094914;27;9920;-72
2023/01/30 12:59:16;;;;;;;;;9.25;9.25;;;;;;;;5096923;27;9750;-72
2023/01/30 13:01:54;;;;;;;;;14.25;14.25;;;;;;;;5078039;27;9889;-73
2023/01/30 13:04:30;;;;;;;;;11.75;10.50;;;;;;;;5100251;27;10023;-70
2023/01/30 13:07:07;;;;;;;;;15.50;15.50;;;;;;;;5098366;27;10730;-72
2023/01/30 13:09:46;;;;;;;;;16.25;13.50;;;;;;;;5099423;27;9946;-71
2023/01/30 13:12:20;;;;;;;;;9.75;9.75;;;;;;;;5098010;27;10018;-71
2023/01/30 13:14:53;;;;;;;;;9.50;9.00;;;;;;;;5100525;27;10005;-71
2023/01/30 13:17:34;;;;;;;;;9.00;9.00;;;;;;;;5063967;28;10113;-72
2023/01/30 13:20:05;;;;;;;;;13.75;11.00;;;;;;;;5095652;28;9841;-72
2023/01/30 13:22:40;;;;;;;;;9.50;8.25;;;;;;;;5099093;27;10127;-72
2023/01/30 13:25:17;;;;;;;;;7.25;7.25;;;;;;;;5100031;27;9781;-73
2023/01/30 13:27:50;;;;;;;;;9.50;9.50;;;;;;;;5086124;28;9863;-73
2023/01/30 13:30:18;;;;;;;;;7.75;6.00;;;;;;;;5085741;28;9712;-72
2023/01/30 13:32:49;;;;;;;;;10.50;10.50;;;;;;;;5097680;28;9722;-72
2023/01/30 13:35:19;;;;;;;;;10.25;8.50;;;;;;;;5084035;27;10683;-72
2023/01/30 13:37:49;;;;;;;;;7.00;7.00;;;;;;;;5099119;27;10020;-70
2023/01/30 13:40:19;;;;;;;;;4.25;4.25;;;;;;;;5081658;28;9923;-71
2023/01/30 13:42:50;;;;;;;;;6.75;5.00;;;;;;;;5082129;28;9921;-71
2023/01/30 13:45:21;;;;;;;;;4.50;4.25;;;;;;;;5081000;28;10096;-73
2023/01/30 13:48:00;;;;;;;;;3.25;3.25;;;;;;;;5099297;28;9896;-71
2023/01/30 13:50:37;;;;;;;;;2.75;2.75;;;;;;;;5100797;28;10739;-71
2023/01/30 13:53:09;;;;;;;;;2.75;2.75;;;;;;;;5099738;27;10170;-71
2023/01/30 13:55:42;;;;;;;;;2.00;2.00;;;;;;;;5083769;27;10171;-71
2023/01/30 13:58:17;;;;;;;;;2.00;2.00;;;;;;;;5102529;27;10157;-71
2023/01/30 14:00:53;;;;;;;;;3.50;2.00;;;;;;;;5102156;27;10028;-71
2023/01/30 14:03:30;;;;;;;;;2.00;2.00;;;;;;;;5104001;27;10092;-71
2023/01/30 14:06:33;;;;;;;;;1.00;1.00;;;;;;;;5103211;27;10178;-71
2023/01/30 14:09:05;;;;;;;;;2.50;2.50;;;;;;;;5106671;27;9892;-71
2023/01/30 14:11:39;;;;;;;;;2.00;2.00;;;;;;;;5101653;27;10051;-71
2023/01/30 14:14:26;;;;;;;;;3.25;2.00;;;;;;;;5103829;27;10746;-71
2023/01/30 14:16:55;;;;;;;;;2.00;2.00;;;;;;;;5103226;27;9792;-70
2023/01/30 14:19:39;;;;;;;;;2.00;2.00;;;;;;;;5101658;27;9671;-71
2023/01/30 14:22:26;;;;;;;;;2.00;2.00;;;;;;;;5099550;27;9547;-71
2023/01/30 14:25:45;;;;;;;;;2.25;1.00;;;;;;;;5102529;27;9465;-71
2023/01/30 14:28:43;;;;;;;;;2.00;2.00;;;;;;;;5097357;28;9411;-71
2023/01/30 14:31:11;;;;;;;;;1.50;1.50;;;;;;;;5086519;27;9407;-71
2023/01/30 14:33:49;;;;;;;;;1.00;1.00;;;;;;;;5078247;28;9388;-71
2023/01/30 14:36:35;;;;;;;;;1.00;1.00;;;;;;;;5080907;28;9459;-71
2023/01/30 14:39:40;;;;;;;;;1.75;1.75;;;;;;;;5077478;28;9437;-70
2023/01/30 14:42:23;;;;;;;;;1.00;1.00;;;;;;;;5079012;28;9495;-71
2023/01/30 14:45:01;;;;;;;;;2.00;2.00;;;;;;;;5073622;28;9553;-71
2023/01/30 14:47:30;;;;;;;;;2.00;1.00;;;;;;;;5081531;28;9630;-73
2023/01/30 14:49:58;;;;;;;;;3.00;3.00;;;;;;;;5094520;28;9535;-72
2023/01/30 14:52:34;;;;;;;;;3.75;2.25;;;;;;;;5096551;27;9669;-72
2023/01/30 14:55:03;;;;;;;;;3.00;3.00;;;;;;;;5097261;28;9754;-71